Terminal Aerodrome Forecast
Issued by NWS

Home | Current Version | Previous Version | Text Only | Print | Product List | Glossary Off
Versions: 1 2 3 4 5 6 7 8 9 10 11 12 13 14 15 16 17

000
FTUS43 KIWX 142204 AAA
TAFSBN
TAF AMD
KSBN 142204Z 1422/1518 12010KT 6SM -SHRA VCTS SCT015CB OVC035
      TEMPO 1422/1423 1SM +TSRA OVC015CB
     FM150100 19014KT P6SM VCTS SCT035CB OVC050 WS020/21045KT
     FM150800 22018G28KT 4SM TSRA BKN025CB
     FM151300 26020G30KT P6SM OVC015=

USA.gov is the U.S. government's official web portal to all federal, state and local government web resources and services.